sensor_id;sensor_type;location;lat;lon;timestamp;P1;durP1;ratioP1;P2;durP2;ratioP2
72335;SDS011;73817;48.446;8.834;2023-11-19T00:01:16;3.33;;;1.83;;
72335;SDS011;73817;48.446;8.834;2023-11-19T00:04:16;2.17;;;1.42;;
72335;SDS011;73817;48.446;8.834;2023-11-19T00:07:17;1.80;;;1.40;;
72335;SDS011;73817;48.446;8.834;2023-11-19T00:10:17;3.28;;;1.52;;
72335;SDS011;73817;48.446;8.834;2023-11-19T00:13:20;2.45;;;1.40;;
72335;SDS011;73817;48.446;8.834;2023-11-19T00:16:21;1.90;;;1.50;;
72335;SDS011;73817;48.446;8.834;2023-11-19T00:19:21;3.03;;;1.58;;
72335;SDS011;73817;48.446;8.834;2023-11-19T00:22:22;1.55;;;1.33;;
72335;SDS011;73817;48.446;8.834;2023-11-19T00:25:22;2.95;;;1.70;;
72335;SDS011;73817;48.446;8.834;2023-11-19T00:28:22;1.77;;;1.30;;
72335;SDS011;73817;48.446;8.834;2023-11-19T00:31:24;2.10;;;1.08;;
72335;SDS011;73817;48.446;8.834;2023-11-19T00:34:26;2.95;;;1.83;;
72335;SDS011;73817;48.446;8.834;2023-11-19T00:37:26;1.67;;;1.30;;
72335;SDS011;73817;48.446;8.834;2023-11-19T00:40:27;2.20;;;1.58;;
72335;SDS011;73817;48.446;8.834;2023-11-19T00:43:27;1.35;;;1.20;;
72335;SDS011;73817;48.446;8.834;2023-11-19T00:46:27;1.98;;;1.27;;
72335;SDS011;73817;48.446;8.834;2023-11-19T00:49:28;1.98;;;1.42;;
72335;SDS011;73817;48.446;8.834;2023-11-19T00:52:28;3.10;;;1.60;;
72335;SDS011;73817;48.446;8.834;2023-11-19T00:55:28;3.20;;;1.50;;
72335;SDS011;73817;48.446;8.834;2023-11-19T00:58:29;1.70;;;1.25;;
72335;SDS011;73817;48.446;8.834;2023-11-19T01:01:29;2.15;;;1.55;;
72335;SDS011;73817;48.446;8.834;2023-11-19T01:04:33;1.98;;;1.27;;
72335;SDS011;73817;48.446;8.834;2023-11-19T01:07:35;2.17;;;1.77;;
72335;SDS011;73817;48.446;8.834;2023-11-19T01:10:38;2.13;;;1.50;;
72335;SDS011;73817;48.446;8.834;2023-11-19T01:13:38;4.28;;;1.50;;
72335;SDS011;73817;48.446;8.834;2023-11-19T01:16:39;4.50;;;1.73;;
72335;SDS011;73817;48.446;8.834;2023-11-19T01:19:39;1.95;;;1.48;;
72335;SDS011;73817;48.446;8.834;2023-11-19T01:22:40;2.38;;;1.30;;
72335;SDS011;73817;48.446;8.834;2023-11-19T01:25:40;1.67;;;1.50;;
72335;SDS011;73817;48.446;8.834;2023-11-19T01:28:40;2.35;;;1.50;;
72335;SDS011;73817;48.446;8.834;2023-11-19T01:31:45;3.42;;;1.38;;
72335;SDS011;73817;48.446;8.834;2023-11-19T01:34:47;2.72;;;1.45;;
72335;SDS011;73817;48.446;8.834;2023-11-19T01:37:47;2.15;;;1.70;;
72335;SDS011;73817;48.446;8.834;2023-11-19T01:40:47;2.17;;;1.63;;
72335;SDS011;73817;48.446;8.834;2023-11-19T01:43:48;1.95;;;1.35;;
72335;SDS011;73817;48.446;8.834;2023-11-19T01:46:48;3.05;;;1.50;;
72335;SDS011;73817;48.446;8.834;2023-11-19T01:49:49;2.05;;;1.17;;
72335;SDS011;73817;48.446;8.834;2023-11-19T01:52:53;1.60;;;1.23;;
72335;SDS011;73817;48.446;8.834;2023-11-19T01:55:54;2.88;;;1.20;;
72335;SDS011;73817;48.446;8.834;2023-11-19T01:58:56;1.15;;;0.85;;
72335;SDS011;73817;48.446;8.834;2023-11-19T02:01:57;1.90;;;1.10;;
72335;SDS011;73817;48.446;8.834;2023-11-19T02:04:58;1.80;;;1.25;;
72335;SDS011;73817;48.446;8.834;2023-11-19T02:08:00;1.30;;;1.05;;
72335;SDS011;73817;48.446;8.834;2023-11-19T02:11:01;1.85;;;1.15;;
72335;SDS011;73817;48.446;8.834;2023-11-19T02:14:01;1.25;;;1.00;;
72335;SDS011;73817;48.446;8.834;2023-11-19T02:17:04;1.83;;;1.00;;
72335;SDS011;73817;48.446;8.834;2023-11-19T02:20:05;1.48;;;1.13;;
72335;SDS011;73817;48.446;8.834;2023-11-19T02:23:12;1.35;;;0.93;;
72335;SDS011;73817;48.446;8.834;2023-11-19T02:26:23;1.17;;;1.00;;
72335;SDS011;73817;48.446;8.834;2023-11-19T02:29:29;1.77;;;1.20;;
72335;SDS011;73817;48.446;8.834;2023-11-19T02:32:29;1.80;;;1.08;;
72335;SDS011;73817;48.446;8.834;2023-11-19T02:35:31;2.10;;;1.30;;
72335;SDS011;73817;48.446;8.834;2023-11-19T02:38:32;1.27;;;0.90;;
72335;SDS011;73817;48.446;8.834;2023-11-19T02:41:33;1.20;;;1.10;;
72335;SDS011;73817;48.446;8.834;2023-11-19T02:44:33;3.97;;;2.00;;
72335;SDS011;73817;48.446;8.834;2023-11-19T02:47:34;1.85;;;1.00;;
72335;SDS011;73817;48.446;8.834;2023-11-19T02:50:35;2.35;;;1.25;;
72335;SDS011;73817;48.446;8.834;2023-11-19T02:53:37;1.77;;;0.93;;
72335;SDS011;73817;48.446;8.834;2023-11-19T02:56:37;2.30;;;0.93;;
72335;SDS011;73817;48.446;8.834;2023-11-19T02:59:42;1.92;;;1.20;;
72335;SDS011;73817;48.446;8.834;2023-11-19T03:02:46;1.10;;;0.70;;
72335;SDS011;73817;48.446;8.834;2023-11-19T03:05:48;1.30;;;1.20;;
72335;SDS011;73817;48.446;8.834;2023-11-19T03:08:49;1.75;;;1.52;;
72335;SDS011;73817;48.446;8.834;2023-11-19T03:11:50;2.53;;;0.90;;
72335;SDS011;73817;48.446;8.834;2023-11-19T03:14:50;0.55;;;0.52;;
72335;SDS011;73817;48.446;8.834;2023-11-19T03:17:50;0.50;;;0.30;;
72335;SDS011;73817;48.446;8.834;2023-11-19T03:20:51;1.58;;;0.50;;
72335;SDS011;73817;48.446;8.834;2023-11-19T03:23:52;0.50;;;0.38;;
72335;SDS011;73817;48.446;8.834;2023-11-19T03:26:52;1.00;;;0.52;;
72335;SDS011;73817;48.446;8.834;2023-11-19T03:29:53;0.50;;;0.40;;
72335;SDS011;73817;48.446;8.834;2023-11-19T03:32:53;0.40;;;0.30;;
72335;SDS011;73817;48.446;8.834;2023-11-19T03:35:56;0.38;;;0.20;;
72335;SDS011;73817;48.446;8.834;2023-11-19T03:38:56;0.52;;;0.30;;
72335;SDS011;73817;48.446;8.834;2023-11-19T03:41:57;0.40;;;0.32;;
72335;SDS011;73817;48.446;8.834;2023-11-19T03:44:57;0.38;;;0.30;;
72335;SDS011;73817;48.446;8.834;2023-11-19T03:47:57;0.22;;;0.13;;
72335;SDS011;73817;48.446;8.834;2023-11-19T03:50:58;0.20;;;0.20;;
72335;SDS011;73817;48.446;8.834;2023-11-19T03:53:58;0.15;;;0.10;;
72335;SDS011;73817;48.446;8.834;2023-11-19T03:56:59;1.55;;;0.43;;
72335;SDS011;73817;48.446;8.834;2023-11-19T04:00:00;1.20;;;0.30;;
72335;SDS011;73817;48.446;8.834;2023-11-19T04:03:05;1.45;;;0.30;;
72335;SDS011;73817;48.446;8.834;2023-11-19T04:06:06;0.40;;;0.20;;
72335;SDS011;73817;48.446;8.834;2023-11-19T04:09:06;0.45;;;0.20;;
72335;SDS011;73817;48.446;8.834;2023-11-19T04:12:06;0.20;;;0.10;;
72335;SDS011;73817;48.446;8.834;2023-11-19T04:15:08;0.17;;;0.17;;
72335;SDS011;73817;48.446;8.834;2023-11-19T04:18:08;0.30;;;0.22;;
72335;SDS011;73817;48.446;8.834;2023-11-19T04:21:09;0.10;;;0.10;;
72335;SDS011;73817;48.446;8.834;2023-11-19T04:24:09;0.30;;;0.20;;
72335;SDS011;73817;48.446;8.834;2023-11-19T04:27:13;0.20;;;0.10;;
72335;SDS011;73817;48.446;8.834;2023-11-19T04:30:14;0.20;;;0.10;;
72335;SDS011;73817;48.446;8.834;2023-11-19T04:33:14;0.50;;;0.10;;
72335;SDS011;73817;48.446;8.834;2023-11-19T04:36:18;0.43;;;0.20;;
72335;SDS011;73817;48.446;8.834;2023-11-19T04:39:19;0.30;;;0.30;;
72335;SDS011;73817;48.446;8.834;2023-11-19T04:42:21;1.58;;;0.20;;
72335;SDS011;73817;48.446;8.834;2023-11-19T04:45:22;0.20;;;0.20;;
72335;SDS011;73817;48.446;8.834;2023-11-19T04:48:23;1.10;;;0.35;;
72335;SDS011;73817;48.446;8.834;2023-11-19T04:51:23;1.20;;;0.30;;
72335;SDS011;73817;48.446;8.834;2023-11-19T04:54:24;0.10;;;0.03;;
72335;SDS011;73817;48.446;8.834;2023-11-19T04:57:24;0.20;;;0.10;;
72335;SDS011;73817;48.446;8.834;2023-11-19T05:00:24;0.65;;;0.25;;
72335;SDS011;73817;48.446;8.834;2023-11-19T05:03:25;1.77;;;0.70;;
72335;SDS011;73817;48.446;8.834;2023-11-19T05:06:27;5.72;;;1.83;;
72335;SDS011;73817;48.446;8.834;2023-11-19T05:09:30;2.80;;;0.40;;
72335;SDS011;73817;48.446;8.834;2023-11-19T05:12:31;1.00;;;0.55;;
72335;SDS011;73817;48.446;8.834;2023-11-19T05:15:31;0.90;;;0.60;;
72335;SDS011;73817;48.446;8.834;2023-11-19T05:18:32;0.50;;;0.30;;
72335;SDS011;73817;48.446;8.834;2023-11-19T05:21:32;0.35;;;0.20;;
72335;SDS011;73817;48.446;8.834;2023-11-19T05:24:33;0.57;;;0.20;;
72335;SDS011;73817;48.446;8.834;2023-11-19T05:27:34;0.43;;;0.10;;
72335;SDS011;73817;48.446;8.834;2023-11-19T05:30:35;0.70;;;0.40;;
72335;SDS011;73817;48.446;8.834;2023-11-19T05:33:36;0.50;;;0.30;;
72335;SDS011;73817;48.446;8.834;2023-11-19T05:36:36;1.17;;;0.25;;
72335;SDS011;73817;48.446;8.834;2023-11-19T05:39:37;0.30;;;0.20;;
72335;SDS011;73817;48.446;8.834;2023-11-19T05:42:37;0.77;;;0.52;;
72335;SDS011;73817;48.446;8.834;2023-11-19T05:45:37;0.28;;;0.20;;
72335;SDS011;73817;48.446;8.834;2023-11-19T05:48:38;1.88;;;0.40;;
72335;SDS011;73817;48.446;8.834;2023-11-19T05:51:39;1.75;;;0.10;;
72335;SDS011;73817;48.446;8.834;2023-11-19T05:54:39;0.73;;;0.30;;
72335;SDS011;73817;48.446;8.834;2023-11-19T05:57:40;0.65;;;0.10;;
72335;SDS011;73817;48.446;8.834;2023-11-19T06:00:41;0.20;;;0.20;;
72335;SDS011;73817;48.446;8.834;2023-11-19T06:03:41;0.32;;;0.20;;
72335;SDS011;73817;48.446;8.834;2023-11-19T06:06:43;0.20;;;0.10;;
72335;SDS011;73817;48.446;8.834;2023-11-19T06:09:43;0.10;;;0.10;;
72335;SDS011;73817;48.446;8.834;2023-11-19T06:12:44;0.25;;;0.20;;
72335;SDS011;73817;48.446;8.834;2023-11-19T06:15:46;0.55;;;0.10;;
72335;SDS011;73817;48.446;8.834;2023-11-19T06:18:46;0.40;;;0.40;;
72335;SDS011;73817;48.446;8.834;2023-11-19T06:21:46;0.45;;;0.20;;
72335;SDS011;73817;48.446;8.834;2023-11-19T06:24:47;0.30;;;0.20;;
72335;SDS011;73817;48.446;8.834;2023-11-19T06:27:47;0.73;;;0.73;;
72335;SDS011;73817;48.446;8.834;2023-11-19T06:30:48;0.77;;;0.70;;
72335;SDS011;73817;48.446;8.834;2023-11-19T06:33:48;2.70;;;1.35;;
72335;SDS011;73817;48.446;8.834;2023-11-19T06:36:48;1.95;;;0.88;;
72335;SDS011;73817;48.446;8.834;2023-11-19T06:39:49;3.13;;;1.20;;
72335;SDS011;73817;48.446;8.834;2023-11-19T06:42:49;1.52;;;1.10;;
72335;SDS011;73817;48.446;8.834;2023-11-19T06:45:53;0.20;;;0.10;;
72335;SDS011;73817;48.446;8.834;2023-11-19T06:48:53;0.30;;;0.10;;
72335;SDS011;73817;48.446;8.834;2023-11-19T06:51:54;2.08;;;1.65;;
72335;SDS011;73817;48.446;8.834;2023-11-19T06:54:54;0.08;;;0.00;;
72335;SDS011;73817;48.446;8.834;2023-11-19T06:57:54;0.38;;;0.20;;
72335;SDS011;73817;48.446;8.834;2023-11-19T07:00:55;0.32;;;0.20;;
72335;SDS011;73817;48.446;8.834;2023-11-19T07:03:55;0.88;;;0.38;;
72335;SDS011;73817;48.446;8.834;2023-11-19T07:06:57;5.03;;;4.03;;
72335;SDS011;73817;48.446;8.834;2023-11-19T07:09:58;9.27;;;5.32;;
72335;SDS011;73817;48.446;8.834;2023-11-19T07:12:58;7.28;;;4.40;;
72335;SDS011;73817;48.446;8.834;2023-11-19T07:15:59;5.03;;;3.65;;
72335;SDS011;73817;48.446;8.834;2023-11-19T07:19:00;1.00;;;0.90;;
72335;SDS011;73817;48.446;8.834;2023-11-19T07:22:01;1.95;;;1.77;;
72335;SDS011;73817;48.446;8.834;2023-11-19T07:25:01;4.60;;;2.92;;
72335;SDS011;73817;48.446;8.834;2023-11-19T07:28:02;1.05;;;0.30;;
72335;SDS011;73817;48.446;8.834;2023-11-19T07:31:05;3.72;;;2.15;;
72335;SDS011;73817;48.446;8.834;2023-11-19T07:34:07;1.27;;;0.63;;
72335;SDS011;73817;48.446;8.834;2023-11-19T07:37:09;0.73;;;0.60;;
72335;SDS011;73817;48.446;8.834;2023-11-19T07:40:09;0.50;;;0.40;;
72335;SDS011;73817;48.446;8.834;2023-11-19T07:43:12;0.90;;;0.90;;
72335;SDS011;73817;48.446;8.834;2023-11-19T07:46:15;0.60;;;0.40;;
72335;SDS011;73817;48.446;8.834;2023-11-19T07:49:16;1.15;;;0.40;;
72335;SDS011;73817;48.446;8.834;2023-11-19T07:52:16;0.55;;;0.30;;
72335;SDS011;73817;48.446;8.834;2023-11-19T07:55:17;0.40;;;0.35;;
72335;SDS011;73817;48.446;8.834;2023-11-19T07:58:17;1.40;;;0.70;;
72335;SDS011;73817;48.446;8.834;2023-11-19T08:01:17;0.45;;;0.20;;
72335;SDS011;73817;48.446;8.834;2023-11-19T08:04:18;1.50;;;1.00;;
72335;SDS011;73817;48.446;8.834;2023-11-19T08:07:19;2.35;;;2.00;;
72335;SDS011;73817;48.446;8.834;2023-11-19T08:10:19;0.70;;;0.50;;
72335;SDS011;73817;48.446;8.834;2023-11-19T08:13:20;0.20;;;0.20;;
72335;SDS011;73817;48.446;8.834;2023-11-19T08:16:20;0.80;;;0.50;;
72335;SDS011;73817;48.446;8.834;2023-11-19T08:19:20;1.25;;;1.02;;
72335;SDS011;73817;48.446;8.834;2023-11-19T08:22:21;0.50;;;0.50;;
72335;SDS011;73817;48.446;8.834;2023-11-19T08:25:22;0.68;;;0.60;;
72335;SDS011;73817;48.446;8.834;2023-11-19T08:28:23;4.95;;;3.15;;
72335;SDS011;73817;48.446;8.834;2023-11-19T08:31:24;5.40;;;3.78;;
72335;SDS011;73817;48.446;8.834;2023-11-19T08:34:25;1.02;;;0.50;;
72335;SDS011;73817;48.446;8.834;2023-11-19T08:37:25;1.33;;;1.05;;
72335;SDS011;73817;48.446;8.834;2023-11-19T08:40:26;0.68;;;0.43;;
72335;SDS011;73817;48.446;8.834;2023-11-19T08:43:26;0.40;;;0.22;;
72335;SDS011;73817;48.446;8.834;2023-11-19T08:46:27;0.20;;;0.20;;
72335;SDS011;73817;48.446;8.834;2023-11-19T08:49:27;0.63;;;0.30;;
72335;SDS011;73817;48.446;8.834;2023-11-19T08:52:28;0.40;;;0.30;;
72335;SDS011;73817;48.446;8.834;2023-11-19T08:55:28;1.27;;;0.60;;
72335;SDS011;73817;48.446;8.834;2023-11-19T08:58:29;2.42;;;1.40;;
72335;SDS011;73817;48.446;8.834;2023-11-19T09:01:30;1.73;;;1.10;;
72335;SDS011;73817;48.446;8.834;2023-11-19T09:04:31;1.13;;;0.80;;
72335;SDS011;73817;48.446;8.834;2023-11-19T09:07:31;1.52;;;1.20;;
72335;SDS011;73817;48.446;8.834;2023-11-19T09:10:32;0.40;;;0.38;;
72335;SDS011;73817;48.446;8.834;2023-11-19T09:13:32;0.63;;;0.50;;
72335;SDS011;73817;48.446;8.834;2023-11-19T09:16:33;0.60;;;0.40;;
72335;SDS011;73817;48.446;8.834;2023-11-19T09:19:33;1.42;;;0.75;;
72335;SDS011;73817;48.446;8.834;2023-11-19T09:22:35;1.05;;;0.90;;
72335;SDS011;73817;48.446;8.834;2023-11-19T09:25:36;1.95;;;1.13;;
72335;SDS011;73817;48.446;8.834;2023-11-19T09:28:36;3.20;;;0.60;;
72335;SDS011;73817;48.446;8.834;2023-11-19T09:31:40;3.80;;;2.70;;
72335;SDS011;73817;48.446;8.834;2023-11-19T09:34:40;0.70;;;0.50;;
72335;SDS011;73817;48.446;8.834;2023-11-19T09:37:41;1.40;;;0.70;;
72335;SDS011;73817;48.446;8.834;2023-11-19T09:40:43;0.43;;;0.10;;
72335;SDS011;73817;48.446;8.834;2023-11-19T09:43:43;0.32;;;0.22;;
72335;SDS011;73817;48.446;8.834;2023-11-19T09:46:45;0.75;;;0.30;;
72335;SDS011;73817;48.446;8.834;2023-11-19T09:49:46;0.50;;;0.30;;
72335;SDS011;73817;48.446;8.834;2023-11-19T09:52:48;0.65;;;0.32;;
72335;SDS011;73817;48.446;8.834;2023-11-19T09:55:49;0.20;;;0.20;;
72335;SDS011;73817;48.446;8.834;2023-11-19T09:58:49;0.63;;;0.55;;
72335;SDS011;73817;48.446;8.834;2023-11-19T10:01:50;0.30;;;0.20;;
72335;SDS011;73817;48.446;8.834;2023-11-19T10:04:51;1.63;;;1.52;;
72335;SDS011;73817;48.446;8.834;2023-11-19T10:07:53;1.20;;;1.00;;
72335;SDS011;73817;48.446;8.834;2023-11-19T10:10:55;1.08;;;0.98;;
72335;SDS011;73817;48.446;8.834;2023-11-19T10:13:56;1.17;;;0.70;;
72335;SDS011;73817;48.446;8.834;2023-11-19T10:16:56;2.53;;;1.42;;
72335;SDS011;73817;48.446;8.834;2023-11-19T10:19:58;0.40;;;0.30;;
72335;SDS011;73817;48.446;8.834;2023-11-19T10:22:59;0.50;;;0.30;;
72335;SDS011;73817;48.446;8.834;2023-11-19T10:26:03;0.70;;;0.40;;
72335;SDS011;73817;48.446;8.834;2023-11-19T10:29:06;1.80;;;0.63;;
72335;SDS011;73817;48.446;8.834;2023-11-19T10:32:07;0.77;;;0.20;;
72335;SDS011;73817;48.446;8.834;2023-11-19T10:35:07;0.20;;;0.20;;
72335;SDS011;73817;48.446;8.834;2023-11-19T10:38:14;0.52;;;0.40;;
72335;SDS011;73817;48.446;8.834;2023-11-19T10:41:26;0.65;;;0.20;;
72335;SDS011;73817;48.446;8.834;2023-11-19T10:44:33;0.28;;;0.20;;
72335;SDS011;73817;48.446;8.834;2023-11-19T10:47:35;0.43;;;0.40;;
72335;SDS011;73817;48.446;8.834;2023-11-19T10:50:39;0.30;;;0.20;;
72335;SDS011;73817;48.446;8.834;2023-11-19T10:53:41;1.75;;;0.93;;
72335;SDS011;73817;48.446;8.834;2023-11-19T10:56:45;0.22;;;0.10;;
72335;SDS011;73817;48.446;8.834;2023-11-19T10:59:55;1.67;;;0.47;;
72335;SDS011;73817;48.446;8.834;2023-11-19T11:03:01;0.10;;;0.10;;
72335;SDS011;73817;48.446;8.834;2023-11-19T11:06:05;0.22;;;0.20;;
72335;SDS011;73817;48.446;8.834;2023-11-19T11:09:07;0.40;;;0.20;;
72335;SDS011;73817;48.446;8.834;2023-11-19T11:12:12;0.20;;;0.20;;
72335;SDS011;73817;48.446;8.834;2023-11-19T11:15:13;0.10;;;0.10;;
72335;SDS011;73817;48.446;8.834;2023-11-19T11:18:15;0.10;;;0.00;;
72335;SDS011;73817;48.446;8.834;2023-11-19T11:21:20;0.22;;;0.10;;
72335;SDS011;73817;48.446;8.834;2023-11-19T11:27:46;1.55;;;0.10;;
72335;SDS011;73817;48.446;8.834;2023-11-19T11:30:55;0.03;;;0.03;;
72335;SDS011;73817;48.446;8.834;2023-11-19T11:40:37;5.63;;;3.00;;
72335;SDS011;73817;48.446;8.834;2023-11-19T11:43:44;0.93;;;0.50;;
72335;SDS011;73817;48.446;8.834;2023-11-19T11:46:55;0.20;;;0.10;;
72335;SDS011;73817;48.446;8.834;2023-11-19T11:49:56;0.45;;;0.10;;
72335;SDS011;73817;48.446;8.834;2023-11-19T11:53:15;0.20;;;0.13;;
72335;SDS011;73817;48.446;8.834;2023-11-19T11:56:16;0.10;;;0.10;;
72335;SDS011;73817;48.446;8.834;2023-11-19T12:02:19;1.05;;;0.20;;
72335;SDS011;73817;48.446;8.834;2023-11-19T12:05:21;0.60;;;0.10;;
72335;SDS011;73817;48.446;8.834;2023-11-19T12:08:27;0.88;;;0.20;;
72335;SDS011;73817;48.446;8.834;2023-11-19T12:11:28;0.73;;;0.10;;
72335;SDS011;73817;48.446;8.834;2023-11-19T12:17:58;0.95;;;0.20;;
72335;SDS011;73817;48.446;8.834;2023-11-19T12:20:59;2.42;;;2.17;;
72335;SDS011;73817;48.446;8.834;2023-11-19T12:24:00;3.90;;;1.92;;
72335;SDS011;73817;48.446;8.834;2023-11-19T12:30:07;0.50;;;0.33;;
72335;SDS011;73817;48.446;8.834;2023-11-19T12:36:12;0.47;;;0.22;;
72335;SDS011;73817;48.446;8.834;2023-11-19T12:39:12;0.10;;;0.05;;
72335;SDS011;73817;48.446;8.834;2023-11-19T12:42:13;1.83;;;0.50;;
72335;SDS011;73817;48.446;8.834;2023-11-19T12:45:14;1.30;;;0.20;;
72335;SDS011;73817;48.446;8.834;2023-11-19T12:48:16;1.02;;;0.30;;
72335;SDS011;73817;48.446;8.834;2023-11-19T12:51:16;0.17;;;0.13;;
72335;SDS011;73817;48.446;8.834;2023-11-19T12:54:17;1.00;;;0.25;;
72335;SDS011;73817;48.446;8.834;2023-11-19T12:57:18;1.92;;;0.20;;
72335;SDS011;73817;48.446;8.834;2023-11-19T13:00:19;0.52;;;0.20;;
72335;SDS011;73817;48.446;8.834;2023-11-19T13:03:33;0.40;;;0.20;;
72335;SDS011;73817;48.446;8.834;2023-11-19T13:06:34;1.40;;;0.80;;
72335;SDS011;73817;48.446;8.834;2023-11-19T13:09:34;0.30;;;0.20;;
72335;SDS011;73817;48.446;8.834;2023-11-19T13:12:34;0.45;;;0.25;;
72335;SDS011;73817;48.446;8.834;2023-11-19T13:15:35;0.35;;;0.10;;
72335;SDS011;73817;48.446;8.834;2023-11-19T13:18:36;1.40;;;0.60;;
72335;SDS011;73817;48.446;8.834;2023-11-19T13:21:36;1.95;;;0.38;;
72335;SDS011;73817;48.446;8.834;2023-11-19T13:24:37;0.30;;;0.30;;
72335;SDS011;73817;48.446;8.834;2023-11-19T13:27:40;0.77;;;0.20;;
72335;SDS011;73817;48.446;8.834;2023-11-19T13:30:40;0.80;;;0.30;;
72335;SDS011;73817;48.446;8.834;2023-11-19T13:33:41;0.70;;;0.20;;
72335;SDS011;73817;48.446;8.834;2023-11-19T13:36:42;0.55;;;0.13;;
72335;SDS011;73817;48.446;8.834;2023-11-19T13:39:42;0.25;;;0.20;;
72335;SDS011;73817;48.446;8.834;2023-11-19T13:42:42;1.55;;;0.50;;
72335;SDS011;73817;48.446;8.834;2023-11-19T13:45:43;0.20;;;0.13;;
72335;SDS011;73817;48.446;8.834;2023-11-19T13:48:43;0.85;;;0.32;;
72335;SDS011;73817;48.446;8.834;2023-11-19T13:51:45;0.52;;;0.20;;
72335;SDS011;73817;48.446;8.834;2023-11-19T13:54:45;0.85;;;0.40;;
72335;SDS011;73817;48.446;8.834;2023-11-19T13:57:46;0.50;;;0.38;;
72335;SDS011;73817;48.446;8.834;2023-11-19T14:00:48;2.05;;;0.70;;
72335;SDS011;73817;48.446;8.834;2023-11-19T14:03:49;0.90;;;0.38;;
72335;SDS011;73817;48.446;8.834;2023-11-19T14:06:49;1.10;;;0.32;;
72335;SDS011;73817;48.446;8.834;2023-11-19T14:09:49;0.50;;;0.20;;
72335;SDS011;73817;48.446;8.834;2023-11-19T14:12:50;0.90;;;0.10;;
72335;SDS011;73817;48.446;8.834;2023-11-19T14:18:51;3.05;;;1.80;;
72335;SDS011;73817;48.446;8.834;2023-11-19T14:24:51;0.87;;;0.40;;
72335;SDS011;73817;48.446;8.834;2023-11-19T14:30:52;0.40;;;0.20;;
72335;SDS011;73817;48.446;8.834;2023-11-19T14:33:56;0.70;;;0.32;;
72335;SDS011;73817;48.446;8.834;2023-11-19T14:39:58;0.32;;;0.20;;
72335;SDS011;73817;48.446;8.834;2023-11-19T14:42:58;1.08;;;0.20;;
72335;SDS011;73817;48.446;8.834;2023-11-19T14:45:59;0.20;;;0.10;;
72335;SDS011;73817;48.446;8.834;2023-11-19T14:49:00;0.35;;;0.20;;
72335;SDS011;73817;48.446;8.834;2023-11-19T14:52:01;1.13;;;0.20;;
72335;SDS011;73817;48.446;8.834;2023-11-19T14:55:01;1.17;;;0.40;;
72335;SDS011;73817;48.446;8.834;2023-11-19T14:58:02;2.58;;;1.85;;
72335;SDS011;73817;48.446;8.834;2023-11-19T15:01:02;3.50;;;3.17;;
72335;SDS011;73817;48.446;8.834;2023-11-19T15:04:04;1.40;;;1.30;;
72335;SDS011;73817;48.446;8.834;2023-11-19T15:07:05;6.95;;;4.97;;
72335;SDS011;73817;48.446;8.834;2023-11-19T15:10:05;4.90;;;3.95;;
72335;SDS011;73817;48.446;8.834;2023-11-19T15:13:10;2.15;;;1.30;;
72335;SDS011;73817;48.446;8.834;2023-11-19T15:16:11;1.05;;;0.82;;
72335;SDS011;73817;48.446;8.834;2023-11-19T15:19:12;6.53;;;4.55;;
72335;SDS011;73817;48.446;8.834;2023-11-19T15:22:14;3.88;;;2.58;;
72335;SDS011;73817;48.446;8.834;2023-11-19T15:25:14;2.67;;;1.70;;
72335;SDS011;73817;48.446;8.834;2023-11-19T15:28:15;2.85;;;0.80;;
72335;SDS011;73817;48.446;8.834;2023-11-19T15:31:15;1.17;;;0.32;;
72335;SDS011;73817;48.446;8.834;2023-11-19T15:34:16;0.35;;;0.22;;
72335;SDS011;73817;48.446;8.834;2023-11-19T15:37:17;0.70;;;0.50;;
72335;SDS011;73817;48.446;8.834;2023-11-19T15:40:17;0.55;;;0.20;;
72335;SDS011;73817;48.446;8.834;2023-11-19T15:43:18;6.90;;;5.25;;
72335;SDS011;73817;48.446;8.834;2023-11-19T15:46:20;3.67;;;1.90;;
72335;SDS011;73817;48.446;8.834;2023-11-19T15:49:20;2.85;;;1.42;;
72335;SDS011;73817;48.446;8.834;2023-11-19T15:52:20;4.05;;;2.63;;
72335;SDS011;73817;48.446;8.834;2023-11-19T15:55:21;5.35;;;3.50;;
72335;SDS011;73817;48.446;8.834;2023-11-19T15:58:22;2.53;;;1.73;;
72335;SDS011;73817;48.446;8.834;2023-11-19T16:01:22;6.97;;;3.55;;
72335;SDS011;73817;48.446;8.834;2023-11-19T16:04:22;6.90;;;3.10;;
72335;SDS011;73817;48.446;8.834;2023-11-19T16:07:23;5.80;;;3.00;;
72335;SDS011;73817;48.446;8.834;2023-11-19T16:10:23;4.50;;;2.60;;
72335;SDS011;73817;48.446;8.834;2023-11-19T16:13:24;4.45;;;3.00;;
72335;SDS011;73817;48.446;8.834;2023-11-19T16:16:24;2.97;;;1.48;;
72335;SDS011;73817;48.446;8.834;2023-11-19T16:19:25;2.65;;;1.45;;
72335;SDS011;73817;48.446;8.834;2023-11-19T16:22:26;2.75;;;2.35;;
72335;SDS011;73817;48.446;8.834;2023-11-19T16:25:27;2.50;;;1.80;;
72335;SDS011;73817;48.446;8.834;2023-11-19T16:28:27;1.90;;;1.30;;
72335;SDS011;73817;48.446;8.834;2023-11-19T16:31:27;1.52;;;1.20;;
72335;SDS011;73817;48.446;8.834;2023-11-19T16:34:28;1.35;;;0.95;;
72335;SDS011;73817;48.446;8.834;2023-11-19T16:37:28;1.70;;;1.33;;
72335;SDS011;73817;48.446;8.834;2023-11-19T16:40:29;4.75;;;3.90;;
72335;SDS011;73817;48.446;8.834;2023-11-19T16:43:29;7.10;;;4.28;;
72335;SDS011;73817;48.446;8.834;2023-11-19T16:46:29;6.93;;;4.07;;
72335;SDS011;73817;48.446;8.834;2023-11-19T16:49:34;6.25;;;3.88;;
72335;SDS011;73817;48.446;8.834;2023-11-19T16:52:34;8.73;;;4.05;;
72335;SDS011;73817;48.446;8.834;2023-11-19T16:55:37;8.02;;;5.72;;
72335;SDS011;73817;48.446;8.834;2023-11-19T16:58:37;6.88;;;5.18;;
72335;SDS011;73817;48.446;8.834;2023-11-19T17:01:38;7.00;;;3.97;;
72335;SDS011;73817;48.446;8.834;2023-11-19T17:04:38;4.88;;;2.47;;
72335;SDS011;73817;48.446;8.834;2023-11-19T17:07:41;6.30;;;3.03;;
72335;SDS011;73817;48.446;8.834;2023-11-19T17:10:43;2.60;;;1.42;;
72335;SDS011;73817;48.446;8.834;2023-11-19T17:13:44;4.47;;;2.40;;
72335;SDS011;73817;48.446;8.834;2023-11-19T17:16:44;2.35;;;1.50;;
72335;SDS011;73817;48.446;8.834;2023-11-19T17:19:45;1.42;;;0.80;;
72335;SDS011;73817;48.446;8.834;2023-11-19T17:22:45;1.45;;;1.13;;
72335;SDS011;73817;48.446;8.834;2023-11-19T17:25:46;1.48;;;1.30;;
72335;SDS011;73817;48.446;8.834;2023-11-19T17:28:46;2.55;;;1.83;;
72335;SDS011;73817;48.446;8.834;2023-11-19T17:31:46;1.45;;;1.23;;
72335;SDS011;73817;48.446;8.834;2023-11-19T17:34:47;7.43;;;5.90;;
72335;SDS011;73817;48.446;8.834;2023-11-19T17:37:48;3.40;;;1.60;;
72335;SDS011;73817;48.446;8.834;2023-11-19T17:40:48;12.52;;;7.20;;
72335;SDS011;73817;48.446;8.834;2023-11-19T17:43:49;1.73;;;1.10;;
72335;SDS011;73817;48.446;8.834;2023-11-19T17:46:49;1.48;;;0.82;;
72335;SDS011;73817;48.446;8.834;2023-11-19T17:49:49;2.30;;;1.42;;
72335;SDS011;73817;48.446;8.834;2023-11-19T17:52:50;2.17;;;0.80;;
72335;SDS011;73817;48.446;8.834;2023-11-19T17:55:50;3.38;;;1.77;;
72335;SDS011;73817;48.446;8.834;2023-11-19T17:58:51;4.53;;;2.13;;
72335;SDS011;73817;48.446;8.834;2023-11-19T18:01:51;4.65;;;2.83;;
72335;SDS011;73817;48.446;8.834;2023-11-19T18:04:56;12.23;;;7.43;;
72335;SDS011;73817;48.446;8.834;2023-11-19T18:07:57;6.70;;;4.18;;
72335;SDS011;73817;48.446;8.834;2023-11-19T18:10:57;3.45;;;2.08;;
72335;SDS011;73817;48.446;8.834;2023-11-19T18:13:57;2.65;;;1.48;;
72335;SDS011;73817;48.446;8.834;2023-11-19T18:16:58;3.60;;;1.20;;
72335;SDS011;73817;48.446;8.834;2023-11-19T18:19:58;5.07;;;1.77;;
72335;SDS011;73817;48.446;8.834;2023-11-19T18:22:58;2.95;;;1.80;;
72335;SDS011;73817;48.446;8.834;2023-11-19T18:29:00;9.80;;;6.13;;
72335;SDS011;73817;48.446;8.834;2023-11-19T18:32:01;11.63;;;7.30;;
72335;SDS011;73817;48.446;8.834;2023-11-19T18:35:02;6.78;;;4.47;;
72335;SDS011;73817;48.446;8.834;2023-11-19T18:38:04;2.63;;;1.45;;
72335;SDS011;73817;48.446;8.834;2023-11-19T18:41:05;3.08;;;1.30;;
72335;SDS011;73817;48.446;8.834;2023-11-19T18:44:05;5.03;;;3.45;;
72335;SDS011;73817;48.446;8.834;2023-11-19T18:47:13;9.10;;;5.50;;
72335;SDS011;73817;48.446;8.834;2023-11-19T18:50:14;11.85;;;6.90;;